createdAt,value
2017-09-23T00:00:53.763Z,1018.93
2017-09-23T00:01:53.802Z,1018.97
2017-09-23T00:02:54.169Z,1018.98
2017-09-23T00:03:54.120Z,1018.94
2017-09-23T00:04:53.901Z,1018.95
2017-09-23T00:05:53.936Z,1019.00
2017-09-23T00:06:53.967Z,1018.97
2017-09-23T00:07:54.002Z,1018.97
2017-09-23T00:08:54.346Z,1018.99
2017-09-23T00:09:54.123Z,1018.96
2017-09-23T00:10:54.109Z,1018.98
2017-09-23T00:11:54.140Z,1018.98
2017-09-23T00:12:54.168Z,1019.01
2017-09-23T00:13:54.276Z,1019.03
2017-09-23T00:14:54.638Z,1019.02
2017-09-23T00:15:54.292Z,1019.02
2017-09-23T00:16:54.308Z,1018.98
2017-09-23T00:17:54.382Z,1019.00
2017-09-23T00:18:54.574Z,1018.99
2017-09-23T00:19:54.414Z,1018.94
2017-09-23T00:20:54.740Z,1018.95
2017-09-23T00:21:54.476Z,1018.95
2017-09-23T00:22:54.517Z,1018.96
2017-09-23T00:23:54.553Z,1018.96
2017-09-23T00:24:54.630Z,1018.90
2017-09-23T00:25:54.608Z,1018.92
2017-09-23T00:26:54.946Z,1018.88
2017-09-23T00:27:54.677Z,1018.91
2017-09-23T00:28:54.710Z,1018.91
2017-09-23T00:29:54.798Z,1018.88
2017-09-23T00:30:54.804Z,1018.84
2017-09-23T00:31:54.806Z,1018.83
2017-09-23T00:32:54.843Z,1018.78
2017-09-23T00:33:55.175Z,1018.83
2017-09-23T00:34:54.914Z,1018.80
2017-09-23T00:35:55.001Z,1018.83
2017-09-23T00:36:54.989Z,1018.83
2017-09-23T00:37:55.025Z,1018.80
2017-09-23T00:38:55.043Z,1018.82
2017-09-23T00:39:55.379Z,1018.77
2017-09-23T00:40:55.112Z,1018.77
2017-09-23T00:41:55.148Z,1018.83
2017-09-23T00:42:55.177Z,1018.84
2017-09-23T00:43:55.251Z,1018.85
2017-09-23T00:44:55.244Z,1018.83
2017-09-23T00:45:55.280Z,1018.81
2017-09-23T00:46:55.862Z,1018.82
2017-09-23T00:47:55.346Z,1018.87
2017-09-23T00:48:55.379Z,1018.85
2017-09-23T00:49:55.412Z,1018.84
2017-09-23T00:50:55.445Z,1018.86
2017-09-23T00:51:55.514Z,1018.87
2017-09-23T00:52:55.815Z,1018.83
2017-09-23T00:53:55.545Z,1018.86
2017-09-23T00:54:55.593Z,1018.88
2017-09-23T00:55:55.661Z,1018.86
2017-09-23T00:56:55.642Z,1018.89
2017-09-23T00:57:55.678Z,1018.92
2017-09-23T00:58:56.010Z,1018.93
2017-09-23T00:59:55.745Z,1018.90
2017-09-23T01:00:55.826Z,1018.90
2017-09-23T01:01:55.810Z,1018.90
2017-09-23T01:02:55.847Z,1018.85
2017-09-23T01:03:55.892Z,1018.89
2017-09-23T01:04:55.909Z,1018.87
2017-09-23T01:05:56.242Z,1018.90
2017-09-23T01:06:55.976Z,1018.89
2017-09-23T01:07:56.019Z,1018.90
2017-09-23T01:08:56.041Z,1018.86
2017-09-23T01:09:56.078Z,1018.89
2017-09-23T01:10:56.113Z,1018.87
2017-09-23T01:11:56.498Z,1018.92
2017-09-23T01:12:56.177Z,1018.88
2017-09-23T01:13:56.219Z,1018.87
2017-09-23T01:14:56.251Z,1018.86
2017-09-23T01:15:56.275Z,1018.82
2017-09-23T01:16:56.333Z,1018.84
2017-09-23T01:17:56.645Z,1018.85
2017-09-23T01:18:56.379Z,1018.85
2017-09-23T01:19:56.408Z,1018.85
2017-09-23T01:20:56.441Z,1018.84
2017-09-23T01:21:56.523Z,1018.89
2017-09-23T01:22:56.514Z,1018.91
2017-09-23T01:23:56.544Z,1018.91
2017-09-23T01:24:56.872Z,1018.96
2017-09-23T01:25:56.610Z,1018.94
2017-09-23T01:26:56.641Z,1018.96
2017-09-23T01:27:56.676Z,1018.98
2017-09-23T01:28:56.709Z,1018.99
2017-09-23T01:29:56.738Z,1018.97
2017-09-23T01:30:56.773Z,1018.97
2017-09-23T01:31:57.107Z,1018.98
2017-09-23T01:32:56.839Z,1018.99
2017-09-23T01:33:56.873Z,1019.01
2017-09-23T01:34:56.905Z,1019.02
2017-09-23T01:35:56.940Z,1019.03
2017-09-23T01:36:56.971Z,1019.04
2017-09-23T01:37:57.004Z,1019.04
2017-09-23T01:38:57.338Z,1019.03
2017-09-23T01:39:57.069Z,1019.03
2017-09-23T01:40:57.154Z,1019.06
2017-09-23T01:41:57.136Z,1019.03
2017-09-23T01:42:57.169Z,1019.03
2017-09-23T01:43:57.209Z,1019.03
2017-09-23T01:44:57.238Z,1019.04
2017-09-23T01:45:57.569Z,1019.07
2017-09-23T01:46:57.306Z,1018.99
2017-09-23T01:47:57.339Z,1019.03
2017-09-23T01:48:57.394Z,1019.03
2017-09-23T01:49:57.406Z,1019.02
2017-09-23T01:50:57.435Z,1018.99
2017-09-23T01:51:57.525Z,1019.02
2017-09-23T01:52:57.800Z,1019.00
2017-09-23T01:53:57.539Z,1019.01
2017-09-23T01:54:57.566Z,1019.03
2017-09-23T01:55:57.600Z,1019.02
2017-09-23T01:56:57.629Z,1019.05
2017-09-23T01:57:57.867Z,1019.06
2017-09-23T01:58:58.000Z,1019.09
2017-09-23T01:59:57.729Z,1019.15
2017-09-23T02:00:57.762Z,1019.13
2017-09-23T02:01:57.797Z,1019.10
2017-09-23T02:02:57.835Z,1019.10
2017-09-23T02:03:57.864Z,1019.12
2017-09-23T02:04:57.895Z,1019.14
2017-09-23T02:05:58.238Z,1019.16
2017-09-23T02:06:57.964Z,1019.10
2017-09-23T02:07:58.000Z,1019.14
2017-09-23T02:08:58.278Z,1019.14
2017-09-23T02:09:58.070Z,1019.16
2017-09-23T02:10:58.097Z,1019.15
2017-09-23T02:11:58.429Z,1019.17
2017-09-23T02:12:58.168Z,1019.18
2017-09-23T02:13:58.200Z,1019.18
2017-09-23T02:14:58.225Z,1019.15
2017-09-23T02:15:58.263Z,1019.22
2017-09-23T02:16:58.290Z,1019.17
2017-09-23T02:17:58.384Z,1019.17
2017-09-23T02:18:58.656Z,1019.20
2017-09-23T02:19:58.391Z,1019.19
2017-09-23T02:20:58.431Z,1019.20
2017-09-23T02:21:58.459Z,1019.23
2017-09-23T02:22:58.493Z,1019.21
2017-09-23T02:23:58.525Z,1019.18
2017-09-23T02:24:58.712Z,1019.20
2017-09-23T02:25:58.892Z,1019.19
2017-09-23T02:26:58.642Z,1019.17
2017-09-23T02:27:58.661Z,1019.16
2017-09-23T02:28:58.970Z,1019.17
2017-09-23T02:29:58.722Z,1019.17
2017-09-23T02:30:58.814Z,1019.17
2017-09-23T02:31:59.093Z,1019.17
2017-09-23T02:32:58.928Z,1019.20
2017-09-23T02:33:58.852Z,1019.27
2017-09-23T02:34:58.888Z,1019.25
2017-09-23T02:35:58.923Z,1019.21
2017-09-23T02:36:58.953Z,1019.27
2017-09-23T02:37:59.032Z,1019.21
2017-09-23T02:38:59.321Z,1019.22
2017-09-23T02:39:59.053Z,1019.22
2017-09-23T02:40:59.105Z,1019.19
2017-09-23T02:41:59.136Z,1019.18
2017-09-23T02:42:59.206Z,1019.18
2017-09-23T02:43:59.184Z,1019.22
2017-09-23T02:44:59.520Z,1019.19
2017-09-23T02:45:59.247Z,1019.21
2017-09-23T02:46:59.280Z,1019.19
2017-09-23T02:47:59.319Z,1019.23
2017-09-23T02:48:59.575Z,1019.21
2017-09-23T02:49:59.378Z,1019.20
2017-09-23T02:50:59.724Z,1019.22
2017-09-23T02:51:59.451Z,1019.21
2017-09-23T02:52:59.482Z,1019.27
2017-09-23T02:53:59.519Z,1019.22
2017-09-23T02:54:59.553Z,1019.26
2017-09-23T02:55:59.615Z,1019.25
2017-09-23T02:56:59.917Z,1019.26
2017-09-23T02:57:59.694Z,1019.26
2017-09-23T02:58:59.675Z,1019.30
2017-09-23T02:59:59.711Z,1019.21
2017-09-23T03:00:59.741Z,1019.28
2017-09-23T03:01:59.773Z,1019.29
2017-09-23T03:03:00.124Z,1019.28
2017-09-23T03:03:59.912Z,1019.25
2017-09-23T03:04:59.874Z,1019.29
2017-09-23T03:05:59.926Z,1019.27
2017-09-23T03:06:59.939Z,1019.26
2017-09-23T03:07:59.972Z,1019.23
2017-09-23T03:09:00.313Z,1019.25
2017-09-23T03:10:00.037Z,1019.30
2017-09-23T03:11:00.070Z,1019.28
2017-09-23T03:12:00.103Z,1019.28
2017-09-23T03:13:00.134Z,1019.28
2017-09-23T03:14:00.363Z,1019.32
2017-09-23T03:15:00.203Z,1019.28
2017-09-23T03:16:00.573Z,1019.29
2017-09-23T03:17:00.268Z,1019.34
2017-09-23T03:18:00.300Z,1019.29
2017-09-23T03:19:00.431Z,1019.31
2017-09-23T03:20:00.368Z,1019.30
2017-09-23T03:21:00.421Z,1019.32
2017-09-23T03:22:00.729Z,1019.32
2017-09-23T03:23:00.497Z,1019.32
2017-09-23T03:24:00.597Z,1019.32
2017-09-23T03:25:00.533Z,1019.31
2017-09-23T03:26:00.566Z,1019.29
2017-09-23T03:27:00.598Z,1019.33
2017-09-23T03:28:00.950Z,1019.33
2017-09-23T03:29:00.719Z,1019.33
2017-09-23T03:30:00.707Z,1019.36
2017-09-23T03:31:00.731Z,1019.40
2017-09-23T03:32:00.760Z,1019.35
2017-09-23T03:33:00.794Z,1019.36
2017-09-23T03:34:01.223Z,1019.33
2017-09-23T03:35:00.885Z,1019.32
2017-09-23T03:36:00.889Z,1019.31
2017-09-23T03:37:00.921Z,1019.32
2017-09-23T03:38:00.981Z,1019.34
2017-09-23T03:39:01.031Z,1019.32
2017-09-23T03:40:01.321Z,1019.34
2017-09-23T03:41:01.057Z,1019.31
2017-09-23T03:42:01.086Z,1019.29
2017-09-23T03:43:01.188Z,1019.31
2017-09-23T03:44:01.171Z,1019.29
2017-09-23T03:45:01.222Z,1019.30
2017-09-23T03:46:01.517Z,1019.28
2017-09-23T03:47:01.260Z,1019.30
2017-09-23T03:48:01.281Z,1019.28
2017-09-23T03:49:01.386Z,1019.26
2017-09-23T03:50:01.351Z,1019.25
2017-09-23T03:51:01.395Z,1019.25
2017-09-23T03:52:01.719Z,1019.27
2017-09-23T03:53:01.507Z,1019.27
2017-09-23T03:54:01.683Z,1019.29
2017-09-23T03:55:01.515Z,1019.29
2017-09-23T03:56:01.550Z,1019.28
2017-09-23T03:57:01.588Z,1019.29
2017-09-23T03:58:01.927Z,1019.31
2017-09-23T03:59:01.652Z,1019.33
2017-09-23T04:00:01.685Z,1019.31
2017-09-23T04:01:01.710Z,1019.34
2017-09-23T04:02:01.743Z,1019.31
2017-09-23T04:03:01.790Z,1019.31
2017-09-23T04:04:01.861Z,1019.29
2017-09-23T04:05:02.189Z,1019.28
2017-09-23T04:06:01.880Z,1019.31
2017-09-23T04:07:01.942Z,1019.33
2017-09-23T04:08:01.998Z,1019.30
2017-09-23T04:09:01.972Z,1019.32
2017-09-23T04:10:02.007Z,1019.37
2017-09-23T04:11:02.341Z,1019.37
2017-09-23T04:12:02.079Z,1019.40
2017-09-23T04:13:02.157Z,1019.38
2017-09-23T04:14:02.140Z,1019.40
2017-09-23T04:15:02.226Z,1019.38
2017-09-23T04:16:02.201Z,1019.36
2017-09-23T04:17:02.532Z,1019.38
2017-09-23T04:18:02.324Z,1019.30
2017-09-23T04:19:02.318Z,1019.34
2017-09-23T04:20:02.335Z,1019.31
2017-09-23T04:21:02.384Z,1019.32
2017-09-23T04:22:02.398Z,1019.33
2017-09-23T04:23:02.430Z,1019.31
2017-09-23T04:24:02.915Z,1019.30
2017-09-23T04:25:02.493Z,1019.33
2017-09-23T04:26:02.524Z,1019.36
2017-09-23T04:27:02.564Z,1019.33
2017-09-23T04:28:02.649Z,1019.38
2017-09-23T04:29:02.623Z,1019.37
2017-09-23T04:30:02.659Z,1019.40
2017-09-23T04:31:02.993Z,1019.39
2017-09-23T04:32:02.731Z,1019.37
2017-09-23T04:33:02.755Z,1019.47
2017-09-23T04:34:02.787Z,1019.42
2017-09-23T04:35:03.025Z,1019.44
2017-09-23T04:36:02.853Z,1019.46
2017-09-23T04:37:03.190Z,1019.48
2017-09-23T04:38:02.933Z,1019.47
2017-09-23T04:39:03.006Z,1019.46
2017-09-23T04:40:02.990Z,1019.49
2017-09-23T04:41:03.016Z,1019.52
2017-09-23T04:42:03.061Z,1019.49
2017-09-23T04:43:03.186Z,1019.49
2017-09-23T04:44:03.419Z,1019.48
2017-09-23T04:45:03.147Z,1019.52
2017-09-23T04:46:03.180Z,1019.48
2017-09-23T04:47:03.213Z,1019.50
2017-09-23T04:48:03.345Z,1019.51
2017-09-23T04:49:03.282Z,1019.54
2017-09-23T04:50:03.327Z,1019.52
2017-09-23T04:51:03.662Z,1019.49
2017-09-23T04:52:03.380Z,1019.52
2017-09-23T04:53:03.410Z,1019.57
2017-09-23T04:54:03.454Z,1019.57
2017-09-23T04:55:03.475Z,1019.55
2017-09-23T04:56:03.509Z,1019.54
2017-09-23T04:57:03.842Z,1019.53
2017-09-23T04:58:03.586Z,1019.56
2017-09-23T04:59:03.617Z,1019.56
2017-09-23T05:00:03.641Z,1019.57
2017-09-23T05:01:03.676Z,1019.50
2017-09-23T05:02:03.754Z,1019.56
2017-09-23T05:03:04.085Z,1019.56
2017-09-23T05:04:03.769Z,1019.54
2017-09-23T05:05:03.799Z,1019.52
2017-09-23T05:06:03.835Z,1019.57
2017-09-23T05:07:04.064Z,1019.60
2017-09-23T05:08:03.902Z,1019.63
2017-09-23T05:09:04.233Z,1019.62
2017-09-23T05:12:14.256Z,1019.65
2017-09-23T05:12:48.612Z,1019.61
2017-09-23T05:13:48.702Z,1019.59
2017-09-23T05:14:48.685Z,1019.58
2017-09-23T05:15:48.737Z,1019.59
2017-09-23T05:16:48.700Z,1019.57
2017-09-23T05:17:49.147Z,1019.60
2017-09-23T05:18:48.842Z,1019.56
2017-09-23T05:19:48.808Z,1019.60
2017-09-23T05:20:48.849Z,1019.60
2017-09-23T05:21:48.868Z,1019.55
2017-09-23T05:22:48.898Z,1019.61
2017-09-23T05:23:49.246Z,1019.58
2017-09-23T05:24:48.962Z,1019.63
2017-09-23T05:25:49.073Z,1019.63
2017-09-23T05:26:49.033Z,1019.60
2017-09-23T05:27:49.073Z,1019.61
2017-09-23T05:28:49.102Z,1019.63
2017-09-23T05:29:49.194Z,1019.62
2017-09-23T05:30:49.546Z,1019.66
2017-09-23T05:31:49.194Z,1019.66
2017-09-23T05:32:49.249Z,1019.62
2017-09-23T05:33:49.258Z,1019.63
2017-09-23T05:34:49.315Z,1019.62
2017-09-23T05:35:49.391Z,1019.63
2017-09-23T05:36:49.652Z,1019.60
2017-09-23T05:37:49.424Z,1019.64
2017-09-23T05:38:49.490Z,1019.63
2017-09-23T05:39:49.451Z,1019.64
2017-09-23T05:40:49.508Z,1019.66
2017-09-23T05:41:49.867Z,1019.69
2017-09-23T05:42:49.910Z,1019.71
2017-09-23T05:43:49.656Z,1019.72
2017-09-23T05:44:49.615Z,1019.73
2017-09-23T05:45:49.743Z,1019.74
2017-09-23T05:46:49.755Z,1019.72
2017-09-23T05:47:49.775Z,1019.69
2017-09-23T05:48:49.825Z,1019.75
2017-09-23T05:49:50.196Z,1019.73
2017-09-23T05:50:49.885Z,1019.77
2017-09-23T05:51:49.876Z,1019.76
2017-09-23T05:52:50.125Z,1019.77
2017-09-23T05:53:49.925Z,1019.78
2017-09-23T05:54:49.960Z,1019.76
2017-09-23T05:55:50.373Z,1019.78
2017-09-23T05:56:50.028Z,1019.81
2017-09-23T05:57:50.139Z,1019.76
2017-09-23T05:58:50.309Z,1019.79
2017-09-23T05:59:50.127Z,1019.78
2017-09-23T06:00:50.616Z,1019.78
2017-09-23T06:01:50.526Z,1019.80
2017-09-23T06:02:50.222Z,1019.76
2017-09-23T06:03:50.321Z,1019.77
2017-09-23T06:04:50.288Z,1019.76
2017-09-23T06:05:50.418Z,1019.77
2017-09-23T06:06:50.361Z,1019.76
2017-09-23T06:07:50.758Z,1019.81
2017-09-23T06:08:50.845Z,1019.79
2017-09-23T06:09:50.453Z,1019.83
2017-09-23T06:10:50.537Z,1019.84
2017-09-23T06:11:50.521Z,1019.82
2017-09-23T06:12:50.552Z,1019.83
2017-09-23T06:13:50.681Z,1019.86
2017-09-23T06:14:50.972Z,1019.84
2017-09-23T06:15:50.950Z,1019.90
2017-09-23T06:16:50.685Z,1019.89
2017-09-23T06:17:50.727Z,1019.90
2017-09-23T06:18:50.750Z,1019.88
2017-09-23T06:19:51.184Z,1019.90
2017-09-23T06:20:50.852Z,1019.90
2017-09-23T06:21:51.152Z,1019.91
2017-09-23T06:22:50.943Z,1019.93
2017-09-23T06:23:50.941Z,1019.95
2017-09-23T06:24:50.948Z,1019.95
2017-09-23T06:25:51.083Z,1019.91
2017-09-23T06:26:51.079Z,1019.95
2017-09-23T06:27:51.724Z,1019.99
2017-09-23T06:28:51.337Z,1019.98
2017-09-23T06:29:51.119Z,1019.96
2017-09-23T06:30:51.414Z,1019.98
2017-09-23T06:31:51.637Z,1019.99
2017-09-23T06:32:51.581Z,1019.98
2017-09-23T06:33:51.544Z,1019.96
2017-09-23T06:34:51.336Z,1019.93
2017-09-23T06:35:51.969Z,1019.93
2017-09-23T06:36:51.424Z,1019.94
2017-09-23T06:37:51.435Z,1019.95
2017-09-23T06:38:51.416Z,1019.97
2017-09-23T06:39:51.946Z,1019.97
2017-09-23T06:40:51.644Z,1019.98
2017-09-23T06:41:51.560Z,1019.98
2017-09-23T06:42:51.606Z,1020.01
2017-09-23T06:43:51.839Z,1020.02
2017-09-23T06:44:51.621Z,1020.00
2017-09-23T06:45:52.192Z,1020.02
2017-09-23T06:46:51.730Z,1020.01
2017-09-23T06:47:51.711Z,1020.01
2017-09-23T06:48:52.051Z,1020.02
2017-09-23T06:49:51.774Z,1020.03
2017-09-23T06:50:51.806Z,1019.99
2017-09-23T06:51:52.286Z,1020.04
2017-09-23T06:52:51.886Z,1019.97
2017-09-23T06:53:51.901Z,1020.02
2017-09-23T06:54:51.993Z,1020.00
2017-09-23T06:55:51.967Z,1020.03
2017-09-23T06:56:52.065Z,1020.00
2017-09-23T06:57:52.386Z,1020.06
2017-09-23T06:58:52.087Z,1020.03
2017-09-23T06:59:52.186Z,1020.04
2017-09-23T07:00:52.436Z,1020.03
2017-09-23T07:01:52.272Z,1020.05
2017-09-23T07:02:52.319Z,1020.07
2017-09-23T07:03:52.291Z,1020.05
2017-09-23T07:04:52.569Z,1020.06
2017-09-23T07:05:52.310Z,1020.07
2017-09-23T07:06:52.336Z,1020.06
2017-09-23T07:07:52.722Z,1020.09
2017-09-23T07:08:52.459Z,1020.05
2017-09-23T07:09:52.432Z,1020.02
2017-09-23T07:10:52.826Z,1020.03
2017-09-23T07:11:52.574Z,1020.01
2017-09-23T07:12:52.641Z,1019.99
2017-09-23T07:13:52.570Z,1019.99
2017-09-23T07:14:52.706Z,1020.00
2017-09-23T07:15:52.633Z,1019.99
2017-09-23T07:16:53.168Z,1019.97
2017-09-23T07:17:52.760Z,1020.00
2017-09-23T07:18:52.738Z,1020.01
2017-09-23T07:19:53.126Z,1020.04
2017-09-23T07:20:52.853Z,1020.06
2017-09-23T07:21:52.892Z,1020.11
2017-09-23T07:22:53.179Z,1020.10
2017-09-23T07:23:52.901Z,1020.10
2017-09-23T07:24:52.934Z,1020.09
2017-09-23T07:25:52.975Z,1020.08
2017-09-23T07:26:53.156Z,1020.08
2017-09-23T07:27:53.085Z,1020.10
2017-09-23T07:28:53.365Z,1020.10
2017-09-23T07:29:53.097Z,1020.07
2017-09-23T07:30:53.129Z,1020.07
2017-09-23T07:31:53.165Z,1020.11
2017-09-23T07:32:53.253Z,1020.11
2017-09-23T07:33:53.229Z,1020.12
2017-09-23T07:34:53.564Z,1020.15
2017-09-23T07:35:53.295Z,1020.19
2017-09-23T07:36:53.332Z,1020.17
2017-09-23T07:37:53.418Z,1020.16
2017-09-23T07:38:53.413Z,1020.20
2017-09-23T07:39:53.433Z,1020.19
2017-09-23T07:40:53.765Z,1020.19
2017-09-23T07:41:53.500Z,1020.21
2017-09-23T07:42:53.531Z,1020.23
2017-09-23T07:43:53.568Z,1020.23
2017-09-23T07:44:53.660Z,1020.25
2017-09-23T07:45:53.629Z,1020.27
2017-09-23T07:46:54.025Z,1020.28
2017-09-23T07:47:53.699Z,1020.32
2017-09-23T07:48:53.742Z,1020.32
2017-09-23T07:49:53.821Z,1020.32
2017-09-23T07:50:53.795Z,1020.36
2017-09-23T07:51:53.829Z,1020.36
2017-09-23T07:52:54.274Z,1020.38
2017-09-23T07:53:54.108Z,1020.36
2017-09-23T07:54:54.192Z,1020.35
2017-09-23T07:55:54.033Z,1020.40
2017-09-23T07:56:54.069Z,1020.38
2017-09-23T07:57:54.352Z,1020.42
2017-09-23T07:58:54.366Z,1020.40
2017-09-23T07:59:54.107Z,1020.42
2017-09-23T08:00:54.407Z,1020.43
2017-09-23T08:01:54.180Z,1020.47
2017-09-23T08:02:54.301Z,1020.52
2017-09-23T08:03:54.238Z,1020.50
2017-09-23T08:04:54.568Z,1020.48
2017-09-23T08:05:54.300Z,1020.55
2017-09-23T08:06:54.327Z,1020.51
2017-09-23T08:07:54.516Z,1020.54
2017-09-23T08:08:54.399Z,1020.56
2017-09-23T08:09:54.433Z,1020.56
2017-09-23T08:10:54.763Z,1020.56
2017-09-23T08:11:54.550Z,1020.62
2017-09-23T08:12:54.529Z,1020.60
2017-09-23T08:13:54.569Z,1020.63
2017-09-23T08:14:54.611Z,1020.63
2017-09-23T08:15:54.639Z,1020.67
2017-09-23T08:16:54.666Z,1020.65
2017-09-23T08:17:55.052Z,1020.71
2017-09-23T08:18:54.753Z,1020.69
2017-09-23T08:19:54.770Z,1020.69
2017-09-23T08:20:54.823Z,1020.69
2017-09-23T08:21:54.834Z,1020.68
2017-09-23T08:22:54.938Z,1020.70
2017-09-23T08:23:55.220Z,1020.70
2017-09-23T08:24:54.944Z,1020.69
2017-09-23T08:25:54.984Z,1020.75
2017-09-23T08:26:55.009Z,1020.72
2017-09-23T08:27:55.038Z,1020.72
2017-09-23T08:28:55.136Z,1020.72
2017-09-23T08:29:55.400Z,1020.74
2017-09-23T08:30:55.150Z,1020.71
2017-09-23T08:31:55.173Z,1020.72
2017-09-23T08:32:55.209Z,1020.72
2017-09-23T08:33:55.442Z,1020.67
2017-09-23T08:34:55.271Z,1020.67
2017-09-23T08:35:55.602Z,1020.70
2017-09-23T08:36:55.547Z,1020.74
2017-09-23T08:37:55.472Z,1020.75
2017-09-23T08:38:55.413Z,1020.76
2017-09-23T08:39:55.456Z,1020.80
2017-09-23T08:40:55.473Z,1020.76
2017-09-23T08:41:55.814Z,1020.73
2017-09-23T08:42:55.540Z,1020.77
2017-09-23T08:43:55.681Z,1020.76
2017-09-23T08:44:55.610Z,1020.75
2017-09-23T08:45:55.651Z,1020.74
2017-09-23T08:46:55.883Z,1020.71
2017-09-23T08:47:56.244Z,1020.69
2017-09-23T08:48:55.854Z,1020.70
2017-09-23T08:50:55.814Z,1020.65
2017-09-23T08:51:55.877Z,1020.64
2017-09-23T08:52:55.884Z,1020.64
2017-09-23T08:53:56.233Z,1020.62
2017-09-23T08:54:55.964Z,1020.62
2017-09-23T08:55:55.986Z,1020.56
2017-09-23T08:56:56.016Z,1020.54
2017-09-23T08:57:56.101Z,1020.56
2017-09-23T08:58:56.197Z,1020.50
2017-09-23T08:59:56.546Z,1020.53
2017-09-23T09:00:56.152Z,1020.50
2017-09-23T09:01:56.248Z,1020.52
2017-09-23T09:02:56.222Z,1020.56
2017-09-23T09:03:56.263Z,1020.56
2017-09-23T09:04:56.294Z,1020.52
2017-09-23T09:05:56.353Z,1020.56
2017-09-23T09:19:42.434Z,1020.57
2017-09-23T09:20:09.262Z,1020.53
2017-09-23T09:21:09.596Z,1020.57
2017-09-23T09:22:09.692Z,1020.58
2017-09-23T09:23:09.366Z,1020.56
2017-09-23T09:24:09.395Z,1020.57
2017-09-23T09:25:09.432Z,1020.53
2017-09-23T09:26:09.466Z,1020.55
2017-09-23T09:27:09.848Z,1020.57
2017-09-23T09:28:09.707Z,1020.56
2017-09-23T09:29:09.711Z,1020.53
2017-09-23T09:30:09.610Z,1020.56
2017-09-23T09:31:09.638Z,1020.50
2017-09-23T09:32:09.702Z,1020.54
2017-09-23T09:33:10.106Z,1020.54
2017-09-23T09:34:09.741Z,1020.52
2017-09-23T09:35:09.770Z,1020.48
2017-09-23T09:36:09.808Z,1020.47
2017-09-23T09:37:09.846Z,1020.46
2017-09-23T09:38:09.923Z,1020.50
2017-09-23T09:39:10.210Z,1020.48
2017-09-23T09:40:09.945Z,1020.44
2017-09-23T09:41:10.002Z,1020.46
2017-09-23T09:42:10.160Z,1020.44
2017-09-23T09:43:10.044Z,1020.46
2017-09-23T09:44:10.291Z,1020.50
2017-09-23T09:45:10.122Z,1020.46
2017-09-23T09:46:10.146Z,1020.47
2017-09-23T09:47:10.182Z,1020.47
2017-09-23T09:48:10.317Z,1020.47
2017-09-23T09:49:10.541Z,1020.43
2017-09-23T09:50:10.634Z,1020.44
2017-09-23T09:51:10.319Z,1020.38
2017-09-23T09:52:10.357Z,1020.41
2017-09-23T09:53:10.389Z,1020.42
2017-09-23T09:54:10.429Z,1020.43
2017-09-23T09:55:10.466Z,1020.42
2017-09-23T09:56:10.790Z,1020.41
2017-09-23T09:57:10.580Z,1020.40
2017-09-23T09:58:10.580Z,1020.42
2017-09-23T09:59:10.606Z,1020.39
2017-09-23T10:00:10.632Z,1020.38
2017-09-23T10:01:10.762Z,1020.40
2017-09-23T10:02:11.008Z,1020.40
2017-09-23T10:03:10.882Z,1020.39
2017-09-23T10:04:10.768Z,1020.40
2017-09-23T10:05:10.799Z,1020.40
2017-09-23T10:06:10.844Z,1020.41
2017-09-23T10:07:10.865Z,1020.39
2017-09-23T10:08:11.206Z,1020.39
2017-09-23T10:09:10.937Z,1020.40
2017-09-23T10:10:10.981Z,1020.39
2017-09-23T10:11:11.031Z,1020.40
2017-09-23T10:12:11.035Z,1020.33
2017-09-23T10:13:11.106Z,1020.37
2017-09-23T10:14:11.436Z,1020.33
2017-09-23T10:15:11.200Z,1020.33
2017-09-23T10:16:11.177Z,1020.34
2017-09-23T10:17:11.214Z,1020.31
2017-09-23T10:18:11.282Z,1020.35
2017-09-23T10:19:11.385Z,1020.37
2017-09-23T10:20:11.634Z,1020.34
2017-09-23T10:21:11.356Z,1020.28
2017-09-23T10:22:11.391Z,1020.33
2017-09-23T10:23:11.620Z,1020.31
2017-09-23T10:24:11.462Z,1020.27
2017-09-23T10:25:11.903Z,1020.26
2017-09-23T10:26:11.835Z,1020.26
2017-09-23T10:27:11.569Z,1020.26
2017-09-23T10:28:11.608Z,1020.24
2017-09-23T10:29:11.728Z,1020.22
2017-09-23T10:30:11.713Z,1020.20
2017-09-23T10:31:11.695Z,1020.19
2017-09-23T10:32:12.035Z,1020.19
2017-09-23T10:33:11.779Z,1020.17
2017-09-23T10:34:11.803Z,1020.11
2017-09-23T10:35:12.033Z,1020.11
2017-09-23T10:36:11.878Z,1020.10
2017-09-23T10:37:11.910Z,1020.09
2017-09-23T10:38:12.242Z,1020.11
2017-09-23T10:39:12.076Z,1020.10
2017-09-23T10:40:12.058Z,1020.09
2017-09-23T10:41:12.095Z,1020.09
2017-09-23T10:42:12.090Z,1020.09
2017-09-23T10:43:12.119Z,1020.11
2017-09-23T10:44:12.455Z,1020.13
2017-09-23T10:45:12.188Z,1020.09
2017-09-23T10:46:12.221Z,1020.09
2017-09-23T10:47:12.273Z,1020.10
2017-09-23T10:48:12.299Z,1020.06
2017-09-23T10:49:12.378Z,1020.08
2017-09-23T10:50:12.805Z,1020.03
2017-09-23T10:51:12.398Z,1020.03
2017-09-23T10:52:12.431Z,1020.02
2017-09-23T10:53:12.474Z,1020.04
2017-09-23T10:54:12.547Z,1020.01
2017-09-23T10:55:12.554Z,1020.00
2017-09-23T10:56:12.881Z,1019.97
2017-09-23T10:57:12.653Z,1019.98
2017-09-23T10:58:12.653Z,1019.96
2017-09-23T10:59:12.853Z,1019.96
2017-09-23T11:00:12.708Z,1019.95
2017-09-23T11:01:12.897Z,1019.92
2017-09-23T11:02:12.791Z,1019.96
2017-09-23T11:03:13.119Z,1019.98
2017-09-23T11:04:12.854Z,1019.96
2017-09-23T11:05:12.988Z,1019.93
2017-09-23T11:06:12.922Z,1019.92
2017-09-23T11:07:12.952Z,1019.96
2017-09-23T11:08:12.989Z,1019.94
2017-09-23T11:09:13.325Z,1019.96
2017-09-23T11:10:13.059Z,1019.96
2017-09-23T11:11:13.199Z,1019.94
2017-09-23T11:12:13.175Z,1019.92
2017-09-23T11:13:13.205Z,1019.95
2017-09-23T11:14:13.263Z,1019.97
2017-09-23T11:15:13.530Z,1019.95
2017-09-23T11:16:13.493Z,1019.93
2017-09-23T11:17:13.312Z,1019.92
2017-09-23T11:18:13.337Z,1019.90
2017-09-23T11:19:13.471Z,1019.88
2017-09-23T11:20:13.421Z,1019.87
2017-09-23T11:21:13.849Z,1019.86
2017-09-23T11:22:13.493Z,1019.88
2017-09-23T11:23:13.519Z,1019.88
2017-09-23T11:24:13.673Z,1019.84
2017-09-23T11:25:13.956Z,1019.86
2017-09-23T11:26:13.665Z,1019.87
2017-09-23T11:27:14.025Z,1019.87
2017-09-23T11:28:13.750Z,1019.88
2017-09-23T11:29:13.941Z,1019.86
2017-09-23T11:30:13.849Z,1019.88
2017-09-23T11:31:13.952Z,1019.87
2017-09-23T11:32:13.959Z,1019.85
2017-09-23T11:33:14.174Z,1019.87
2017-09-23T11:34:13.971Z,1019.87
2017-09-23T11:35:13.990Z,1019.88
2017-09-23T11:36:14.080Z,1019.84
2017-09-23T11:37:14.011Z,1019.83
2017-09-23T11:38:14.107Z,1019.80
2017-09-23T11:39:14.430Z,1019.75
2017-09-23T11:40:14.340Z,1019.76
2017-09-23T11:41:14.223Z,1019.74
2017-09-23T11:42:14.246Z,1019.74
2017-09-23T11:43:14.236Z,1019.73
2017-09-23T11:44:14.663Z,1019.70
2017-09-23T11:45:14.791Z,1019.67
2017-09-23T11:46:14.905Z,1019.70
2017-09-23T11:47:14.594Z,1019.69
2017-09-23T11:48:14.479Z,1019.70
2017-09-23T11:49:14.487Z,1019.63
2017-09-23T11:50:14.607Z,1019.66
2017-09-23T11:51:14.848Z,1019.66
2017-09-23T11:52:14.667Z,1019.65
2017-09-23T11:53:14.642Z,1019.66
2017-09-23T11:54:14.863Z,1019.63
2017-09-23T11:55:14.964Z,1019.63
2017-09-23T11:56:14.874Z,1019.65
2017-09-23T11:57:16.497Z,1019.67
2017-09-23T11:58:15.110Z,1019.68
2017-09-23T11:59:15.029Z,1019.62
2017-09-23T12:00:15.126Z,1019.62
2017-09-23T12:02:15.109Z,1019.61
2017-09-23T12:03:15.345Z,1019.62
2017-09-23T12:04:15.237Z,1019.58
2017-09-23T12:05:14.985Z,1019.58
2017-09-23T12:06:15.254Z,1019.59
2017-09-23T12:07:15.229Z,1019.57
2017-09-23T12:08:15.357Z,1019.54
2017-09-23T12:09:15.445Z,1019.54
2017-09-23T12:10:15.180Z,1019.54
2017-09-23T12:11:15.199Z,1019.54
2017-09-23T12:12:15.265Z,1019.53
2017-09-23T12:13:15.581Z,1019.52
2017-09-23T12:14:15.383Z,1019.54
2017-09-23T12:15:15.637Z,1019.48
2017-09-23T12:16:15.403Z,1019.48
2017-09-23T12:17:15.570Z,1019.49
2017-09-23T12:18:15.497Z,1019.47
2017-09-23T12:19:15.492Z,1019.45
2017-09-23T12:20:15.514Z,1019.48
2017-09-23T12:21:15.862Z,1019.47
2017-09-23T12:22:15.586Z,1019.49